Time,TemperatureF,DewpointF,PressureIn,WindDirection,WindDirectionDegrees,WindSpeedMPH,WindSpeedGustMPH,Humidity,HourlyPrecipIn,Conditions,Clouds,dailyrainin,SolarRadiationWatts/m^2,SoftwareType,DateUTC
2013-02-18 00:02:00,36.0,27.0,-100.00,West,259,2.0,-999.0,70,0.00,,,-99.99,0.000000,,2013-02-18 05:02:00,
2013-02-18 00:11:00,36.0,27.0,-100.00,West,259,2.0,-999.0,70,0.00,,,-99.99,0.000000,,2013-02-18 05:11:00,
2013-02-18 00:21:00,36.0,28.0,-100.00,West,259,2.0,-999.0,71,0.00,,,-99.99,0.000000,,2013-02-18 05:21:00,
2013-02-18 00:32:00,36.0,27.0,-100.00,WSW,257,1.0,-999.0,71,0.00,,,-99.99,0.000000,,2013-02-18 05:32:00,
2013-02-18 00:42:00,35.0,27.0,-100.00,West,260,2.0,-999.0,71,0.00,,,-99.99,0.000000,,2013-02-18 05:42:00,
2013-02-18 00:52:00,35.0,27.0,-100.00,West,260,2.0,-999.0,71,0.00,,,-99.99,0.000000,,2013-02-18 05:52:00,
2013-02-18 01:02:00,35.0,27.0,-100.00,West,265,2.0,-999.0,73,0.00,,,-99.99,0.000000,,2013-02-18 06:02:00,
2013-02-18 01:11:00,35.0,27.0,-100.00,West,265,2.0,-999.0,73,0.00,,,-99.99,0.000000,,2013-02-18 06:11:00,
2013-02-18 01:21:00,36.0,28.0,-100.00,WSW,257,2.0,-999.0,74,0.00,,,-99.99,0.000000,,2013-02-18 06:21:00,
2013-02-18 01:32:00,36.0,29.0,-100.00,WSW,256,2.0,-999.0,75,0.00,,,-99.99,0.000000,,2013-02-18 06:32:00,
2013-02-18 01:42:00,36.0,29.0,-100.00,WSW,256,2.0,-999.0,75,0.00,,,-99.99,0.000000,,2013-02-18 06:42:00,
2013-02-18 01:52:00,35.0,29.0,-100.00,WNW,287,2.0,-999.0,76,0.00,,,-99.99,0.000000,,2013-02-18 06:52:00,
2013-02-18 02:02:00,35.0,28.0,-100.00,NW,309,2.0,-999.0,75,0.00,,,-99.99,0.000000,,2013-02-18 07:02:00,
2013-02-18 02:11:00,35.0,27.0,-100.00,WNW,290,2.0,-999.0,72,0.00,,,-99.99,0.000000,,2013-02-18 07:11:00,
2013-02-18 02:22:00,35.0,27.0,-100.00,WNW,290,2.0,-999.0,72,0.00,,,-99.99,0.000000,,2013-02-18 07:22:00,
2013-02-18 02:32:00,36.0,26.0,-100.00,NW,313,2.0,-999.0,68,0.00,,,-99.99,0.000000,,2013-02-18 07:32:00,
2013-02-18 02:42:00,36.0,26.0,-100.00,NW,313,2.0,-999.0,68,0.00,,,-99.99,0.000000,,2013-02-18 07:42:00,
2013-02-18 02:52:00,35.0,25.0,-100.00,WNW,286,2.0,-999.0,65,0.00,,,-99.99,0.000000,,2013-02-18 07:52:00,
2013-02-18 03:01:00,34.0,25.0,-100.00,WSW,252,1.0,-999.0,68,0.00,,,-99.99,0.000000,,2013-02-18 08:01:00,
2013-02-18 03:11:00,34.0,25.0,-100.00,WSW,252,1.0,-999.0,68,0.00,,,-99.99,0.000000,,2013-02-18 08:11:00,
2013-02-18 03:21:00,33.0,24.0,-100.00,SE,132,1.0,-999.0,69,0.00,,,-99.99,0.000000,,2013-02-18 08:21:00,
2013-02-18 03:32:00,32.0,24.0,-100.00,NE,37,1.0,-999.0,71,0.00,,,-99.99,0.000000,,2013-02-18 08:32:00,
2013-02-18 03:42:00,31.0,24.0,-100.00,East,96,1.0,-999.0,74,0.00,,,-99.99,0.000000,,2013-02-18 08:42:00,
2013-02-18 03:52:00,31.0,24.0,-100.00,East,96,1.0,-999.0,74,0.00,,,-99.99,0.000000,,2013-02-18 08:52:00,
2013-02-18 04:03:00,31.0,24.0,-100.00,SE,126,2.0,-999.0,75,0.00,,,-99.99,0.000000,,2013-02-18 09:03:00,
2013-02-18 04:11:00,31.0,24.0,-100.00,SE,126,2.0,-999.0,75,0.00,,,-99.99,0.000000,,2013-02-18 09:11:00,
2013-02-18 04:22:00,30.0,24.0,-100.00,East,79,2.0,-999.0,75,0.00,,,-99.99,0.000000,,2013-02-18 09:22:00,
2013-02-18 04:32:00,30.0,24.0,-100.00,NE,38,2.0,-999.0,76,0.00,,,-99.99,0.000000,,2013-02-18 09:32:00,
2013-02-18 04:42:00,30.0,24.0,-100.00,NE,38,2.0,-999.0,76,0.00,,,-99.99,0.000000,,2013-02-18 09:42:00,
2013-02-18 04:52:00,30.0,23.0,-100.00,NE,47,2.0,-999.0,77,0.00,,,-99.99,0.000000,,2013-02-18 09:52:00,
2013-02-18 05:01:00,29.0,24.0,-100.00,NE,51,2.0,-999.0,78,0.00,,,-99.99,0.000000,,2013-02-18 10:01:00,
2013-02-18 05:11:00,30.0,24.0,-100.00,North,10,1.0,-999.0,79,0.00,,,-99.99,0.000000,,2013-02-18 10:11:00,
2013-02-18 05:22:00,30.0,24.0,-100.00,North,10,1.0,-999.0,79,0.00,,,-99.99,0.000000,,2013-02-18 10:22:00,
2013-02-18 05:32:00,29.0,23.0,-100.00,NNE,14,2.0,-999.0,80,0.00,,,-99.99,0.000000,,2013-02-18 10:32:00,
2013-02-18 05:42:00,29.0,23.0,-100.00,NNE,14,2.0,-999.0,80,0.00,,,-99.99,0.000000,,2013-02-18 10:42:00,
2013-02-18 05:53:00,28.0,23.0,-100.00,North,9,1.0,-999.0,82,0.00,,,-99.99,0.000000,,2013-02-18 10:53:00,
2013-02-18 06:01:00,28.0,25.0,-100.00,North,5,1.0,-999.0,85,0.00,,,-99.99,0.000000,,2013-02-18 11:01:00,
2013-02-18 06:11:00,28.0,25.0,-100.00,NNE,21,1.0,-999.0,87,0.00,,,-99.99,0.000000,,2013-02-18 11:11:00,
2013-02-18 06:22:00,28.0,25.0,-100.00,NNE,21,1.0,-999.0,87,0.00,,,-99.99,0.000000,,2013-02-18 11:22:00,
2013-02-18 06:32:00,28.0,25.0,-100.00,NE,42,2.0,-999.0,88,0.00,,,-99.99,0.000000,,2013-02-18 11:32:00,
2013-02-18 06:42:00,28.0,25.0,-100.00,NE,40,2.0,-999.0,89,0.00,,,-99.99,0.000000,,2013-02-18 11:42:00,
2013-02-18 07:02:00,29.0,26.0,-100.00,NE,45,2.0,-999.0,89,0.00,,,-99.99,0.000000,,2013-02-18 12:02:00,
2013-02-18 07:11:00,29.0,27.0,-100.00,NE,52,2.0,-999.0,89,0.00,,,-99.99,1.400000,,2013-02-18 12:11:00,
2013-02-18 07:22:00,29.0,27.0,-100.00,NE,52,2.0,-999.0,89,0.00,,,-99.99,1.400000,,2013-02-18 12:22:00,
2013-02-18 07:32:00,29.0,27.0,-100.00,NE,55,2.0,-999.0,89,0.00,,,-99.99,8.200000,,2013-02-18 12:32:00,
2013-02-18 07:42:00,31.0,28.0,-100.00,ENE,63,2.0,-999.0,88,0.00,,,-99.99,73.699997,,2013-02-18 12:42:00,
2013-02-18 07:53:00,31.0,28.0,-100.00,ENE,63,2.0,-999.0,88,0.00,,,-99.99,73.699997,,2013-02-18 12:53:00,
2013-02-18 08:03:00,33.0,30.0,-100.00,ENE,71,2.0,-999.0,87,0.00,,,-99.99,130.199997,,2013-02-18 13:03:00,
2013-02-18 08:12:00,37.0,32.0,-100.00,East,85,2.0,-999.0,84,0.00,,,-99.99,184.399994,,2013-02-18 13:12:00,
2013-02-18 08:22:00,37.0,32.0,-100.00,East,85,2.0,-999.0,84,0.00,,,-99.99,184.399994,,2013-02-18 13:22:00,
2013-02-18 08:32:00,41.0,33.0,-100.00,ENE,73,3.0,-999.0,74,0.00,,,-99.99,228.399994,,2013-02-18 13:32:00,
2013-02-18 08:42:00,44.0,30.0,-100.00,ENE,65,4.0,-999.0,58,0.00,,,-99.99,286.500000,,2013-02-18 13:42:00,
2013-02-18 08:53:00,44.0,30.0,-100.00,ENE,65,4.0,-999.0,58,0.00,,,-99.99,286.500000,,2013-02-18 13:53:00,
2013-02-18 09:02:00,46.0,26.0,-100.00,ENE,61,4.0,-999.0,45,0.00,,,-99.99,346.100006,,2013-02-18 14:02:00,
2013-02-18 09:11:00,48.0,27.0,-100.00,NE,48,3.0,-999.0,43,0.00,,,-99.99,405.100006,,2013-02-18 14:11:00,
2013-02-18 09:22:00,48.0,27.0,-100.00,NE,48,3.0,-999.0,43,0.00,,,-99.99,405.100006,,2013-02-18 14:22:00,
2013-02-18 09:33:00,49.0,26.0,-100.00,ENE,59,3.0,-999.0,39,0.00,,,-99.99,462.899994,,2013-02-18 14:33:00,
2013-02-18 09:42:00,50.0,23.0,-100.00,ENE,65,6.0,-999.0,34,0.00,,,-99.99,516.900024,,2013-02-18 14:42:00,
2013-02-18 09:53:00,50.0,23.0,-100.00,ENE,65,6.0,-999.0,34,0.00,,,-99.99,516.900024,,2013-02-18 14:53:00,
2013-02-18 10:12:00,52.0,21.0,-100.00,ENE,60,5.0,-999.0,30,0.00,,,-99.99,614.500000,,2013-02-18 15:12:00,
2013-02-18 10:22:00,52.0,21.0,-100.00,ENE,60,5.0,-999.0,30,0.00,,,-99.99,614.500000,,2013-02-18 15:22:00,
2013-02-18 10:32:00,53.0,22.0,-100.00,ENE,58,5.0,-999.0,29,0.00,,,-99.99,659.500000,,2013-02-18 15:32:00,
2013-02-18 10:42:00,53.0,22.0,-100.00,ENE,58,5.0,-999.0,29,0.00,,,-99.99,659.500000,,2013-02-18 15:42:00,
2013-02-18 10:53:00,53.0,22.0,-100.00,ENE,58,5.0,-999.0,29,0.00,,,-99.99,659.500000,,2013-02-18 15:53:00,
2013-02-18 11:03:00,55.0,27.0,-100.00,ENE,71,6.0,-999.0,33,0.00,,,-99.99,736.000000,,2013-02-18 16:03:00,
2013-02-18 11:12:00,56.0,29.0,-100.00,ENE,65,6.0,-999.0,34,0.00,,,-99.99,768.000000,,2013-02-18 16:12:00,
2013-02-18 11:22:00,56.0,29.0,-100.00,ENE,65,6.0,-999.0,34,0.00,,,-99.99,768.000000,,2013-02-18 16:22:00,
2013-02-18 11:32:00,57.0,30.0,-100.00,ENE,66,7.0,-999.0,35,0.00,,,-99.99,797.000000,,2013-02-18 16:32:00,
2013-02-18 11:42:00,57.0,30.0,-100.00,ENE,66,7.0,-999.0,35,0.00,,,-99.99,797.000000,,2013-02-18 16:42:00,
2013-02-18 11:53:00,57.0,31.0,-100.00,ENE,69,6.0,-999.0,36,0.00,,,-99.99,801.000000,,2013-02-18 16:53:00,
2013-02-18 12:04:00,59.0,31.0,-100.00,East,82,5.0,-999.0,34,0.00,,,-99.99,842.000000,,2013-02-18 17:04:00,
2013-02-18 12:12:00,59.0,31.0,-100.00,East,82,5.0,-999.0,34,0.00,,,-99.99,842.000000,,2013-02-18 17:12:00,
2013-02-18 12:22:00,60.0,33.0,-100.00,East,90,6.0,-999.0,35,0.00,,,-99.99,858.000000,,2013-02-18 17:22:00,
2013-02-18 12:33:00,61.0,34.0,-100.00,East,86,7.0,-999.0,35,0.00,,,-99.99,870.000000,,2013-02-18 17:33:00,
2013-02-18 12:42:00,62.0,35.0,-100.00,East,97,6.0,-999.0,36,0.00,,,-99.99,876.000000,,2013-02-18 17:42:00,
2013-02-18 12:53:00,62.0,35.0,-100.00,East,97,6.0,-999.0,36,0.00,,,-99.99,876.000000,,2013-02-18 17:53:00,
2013-02-18 13:02:00,62.0,35.0,-100.00,East,89,7.0,-999.0,36,0.00,,,-99.99,878.000000,,2013-02-18 18:02:00,
2013-02-18 13:12:00,63.0,36.0,-100.00,East,94,7.0,-999.0,35,0.00,,,-99.99,877.000000,,2013-02-18 18:12:00,
2013-02-18 13:23:00,63.0,36.0,-100.00,East,94,7.0,-999.0,35,0.00,,,-99.99,877.000000,,2013-02-18 18:23:00,
2013-02-18 13:33:00,63.0,36.0,-100.00,East,94,7.0,-999.0,35,0.00,,,-99.99,870.000000,,2013-02-18 18:33:00,
2013-02-18 13:42:00,64.0,36.0,-100.00,ESE,106,6.0,-999.0,35,0.00,,,-99.99,859.000000,,2013-02-18 18:42:00,
2013-02-18 13:53:00,64.0,36.0,-100.00,ESE,106,6.0,-999.0,35,0.00,,,-99.99,859.000000,,2013-02-18 18:53:00,
2013-02-18 14:03:00,64.0,36.0,-100.00,ESE,106,6.0,-999.0,35,0.00,,,-99.99,859.000000,,2013-02-18 19:03:00,
2013-02-18 14:13:00,64.0,36.0,-100.00,ESE,104,7.0,-999.0,35,0.00,,,-99.99,823.000000,,2013-02-18 19:13:00,
2013-02-18 14:22:00,64.0,36.0,-100.00,ESE,104,7.0,-999.0,35,0.00,,,-99.99,823.000000,,2013-02-18 19:22:00,
2013-02-18 14:33:00,65.0,36.0,-100.00,ESE,112,8.0,-999.0,34,0.00,,,-99.99,800.000000,,2013-02-18 19:33:00,
2013-02-18 14:43:00,65.0,36.0,-100.00,ESE,112,8.0,-999.0,34,0.00,,,-99.99,800.000000,,2013-02-18 19:43:00,
2013-02-18 14:53:00,66.0,36.0,-100.00,ESE,108,6.0,-999.0,33,0.00,,,-99.99,772.000000,,2013-02-18 19:53:00,
2013-02-18 15:02:00,66.0,37.0,-100.00,ESE,112,7.0,-999.0,33,0.00,,,-99.99,734.000000,,2013-02-18 20:02:00,
2013-02-18 15:12:00,66.0,37.0,-100.00,ESE,111,8.0,-999.0,34,0.00,,,-99.99,701.000000,,2013-02-18 20:12:00,
2013-02-18 15:23:00,66.0,37.0,-100.00,ESE,111,8.0,-999.0,34,0.00,,,-99.99,701.000000,,2013-02-18 20:23:00,
2013-02-18 15:33:00,66.0,37.0,-100.00,ESE,111,7.0,-999.0,33,0.00,,,-99.99,665.500000,,2013-02-18 20:33:00,
2013-02-18 15:42:00,67.0,37.0,-100.00,ESE,108,6.0,-999.0,33,0.00,,,-99.99,616.299988,,2013-02-18 20:42:00,
2013-02-18 15:53:00,67.0,37.0,-100.00,ESE,108,6.0,-999.0,33,0.00,,,-99.99,616.299988,,2013-02-18 20:53:00,
2013-02-18 16:03:00,67.0,38.0,-100.00,ESE,118,7.0,-999.0,34,0.00,,,-99.99,566.799988,,2013-02-18 21:03:00,
2013-02-18 16:12:00,67.0,38.0,-100.00,ESE,118,7.0,-999.0,34,0.00,,,-99.99,566.799988,,2013-02-18 21:12:00,
2013-02-18 16:22:00,67.0,38.0,-100.00,ESE,113,6.0,-999.0,34,0.00,,,-99.99,520.500000,,2013-02-18 21:22:00,
2013-02-18 16:32:00,67.0,39.0,-100.00,ESE,110,7.0,-999.0,36,0.00,,,-99.99,463.500000,,2013-02-18 21:32:00,
2013-02-18 16:43:00,67.0,39.0,-100.00,ESE,110,7.0,-999.0,36,0.00,,,-99.99,463.500000,,2013-02-18 21:43:00,
2013-02-18 16:53:00,67.0,40.0,-100.00,SE,125,5.0,-999.0,36,0.00,,,-99.99,414.799988,,2013-02-18 21:53:00,
2013-02-18 17:03:00,67.0,40.0,-100.00,SE,125,5.0,-999.0,36,0.00,,,-99.99,414.799988,,2013-02-18 22:03:00,
2013-02-18 17:12:00,67.0,41.0,-100.00,ESE,102,5.0,-999.0,39,0.00,,,-99.99,383.899994,,2013-02-18 22:12:00,
2013-02-18 17:23:00,66.0,42.0,-100.00,East,96,6.0,-999.0,40,0.00,,,-99.99,308.899994,,2013-02-18 22:23:00,
2013-02-18 17:33:00,65.0,43.0,-100.00,East,85,7.0,-999.0,43,0.00,,,-99.99,142.600006,,2013-02-18 22:33:00,
2013-02-18 17:43:00,64.0,43.0,-100.00,East,87,8.0,-999.0,46,0.00,,,-99.99,58.599998,,2013-02-18 22:43:00,
2013-02-18 17:54:00,64.0,43.0,-100.00,East,87,8.0,-999.0,46,0.00,,,-99.99,58.599998,,2013-02-18 22:54:00,
2013-02-18 18:02:00,63.0,44.0,-100.00,ENE,74,7.0,-999.0,48,0.00,,,-99.99,49.299999,,2013-02-18 23:02:00,
2013-02-18 18:12:00,63.0,45.0,-100.00,East,86,9.0,-999.0,51,0.00,,,-99.99,33.000000,,2013-02-18 23:12:00,
2013-02-18 18:23:00,63.0,45.0,-100.00,East,86,9.0,-999.0,51,0.00,,,-99.99,33.000000,,2013-02-18 23:23:00,
2013-02-18 18:33:00,62.0,44.0,-100.00,East,83,8.0,-999.0,52,0.00,,,-99.99,12.700000,,2013-02-18 23:33:00,
2013-02-18 18:43:00,62.0,44.0,-100.00,East,83,8.0,-999.0,52,0.00,,,-99.99,12.700000,,2013-02-18 23:43:00,
2013-02-18 18:53:00,61.0,45.0,-100.00,East,83,8.0,-999.0,54,0.00,,,-99.99,3.300000,,2013-02-18 23:53:00,
2013-02-18 19:03:00,61.0,45.0,-100.00,East,80,7.0,-999.0,55,0.00,,,-99.99,0.300000,,2013-02-19 00:03:00,
2013-02-18 19:12:00,61.0,45.0,-100.00,East,80,7.0,-999.0,55,0.00,,,-99.99,0.300000,,2013-02-19 00:12:00,
2013-02-18 19:23:00,60.0,45.0,-100.00,East,82,8.0,-999.0,56,0.00,,,-99.99,0.000000,,2013-02-19 00:23:00,
2013-02-18 19:35:00,60.0,45.0,-100.00,East,83,9.0,-999.0,57,0.00,,,-99.99,0.000000,,2013-02-19 00:35:00,
2013-02-18 19:43:00,60.0,45.0,-100.00,East,83,9.0,-999.0,57,0.00,,,-99.99,0.000000,,2013-02-19 00:43:00,
2013-02-18 19:55:00,59.0,45.0,-100.00,East,79,7.0,-999.0,59,0.00,,,-99.99,0.000000,,2013-02-19 00:55:00,
2013-02-18 20:03:00,58.0,45.0,-100.00,ENE,68,6.0,-999.0,62,0.00,,,-99.99,0.000000,,2013-02-19 01:03:00,
2013-02-18 20:14:00,58.0,45.0,-100.00,ENE,68,6.0,-999.0,62,0.00,,,-99.99,0.000000,,2013-02-19 01:14:00,
2013-02-18 20:24:00,58.0,45.0,-100.00,ENE,68,6.0,-999.0,62,0.00,,,-99.99,0.000000,,2013-02-19 01:24:00,
2013-02-18 20:35:00,56.0,46.0,-100.00,ENE,69,6.0,-999.0,67,0.00,,,-99.99,0.000000,,2013-02-19 01:35:00,
2013-02-18 20:44:00,56.0,46.0,-100.00,ENE,69,6.0,-999.0,69,0.00,,,-99.99,0.000000,,2013-02-19 01:44:00,
2013-02-18 20:56:00,56.0,46.0,-100.00,ENE,69,6.0,-999.0,69,0.00,,,-99.99,0.000000,,2013-02-19 01:56:00,
2013-02-18 21:04:00,56.0,46.0,-100.00,ENE,69,6.0,-999.0,69,0.00,,,-99.99,0.000000,,2013-02-19 02:04:00,
2013-02-18 21:14:00,55.0,46.0,-100.00,East,81,6.0,-999.0,73,0.00,,,-99.99,0.000000,,2013-02-19 02:14:00,
2013-02-18 21:23:00,55.0,46.0,-100.00,East,81,6.0,-999.0,73,0.00,,,-99.99,0.000000,,2013-02-19 02:23:00,
2013-02-18 21:34:00,54.0,46.0,-100.00,East,83,7.0,-999.0,74,0.00,,,-99.99,0.000000,,2013-02-19 02:34:00,
2013-02-18 21:43:00,54.0,46.0,-100.00,ENE,76,6.0,-999.0,74,0.00,,,-99.99,0.000000,,2013-02-19 02:43:00,
2013-02-18 21:55:00,54.0,46.0,-100.00,ENE,76,6.0,-999.0,74,0.00,,,-99.99,0.000000,,2013-02-19 02:55:00,
2013-02-18 22:06:00,54.0,47.0,-100.00,East,80,4.0,-999.0,76,0.00,,,-99.99,0.000000,,2013-02-19 03:06:00,
2013-02-18 22:15:00,54.0,47.0,-100.00,East,88,5.0,-999.0,77,0.00,,,-99.99,0.000000,,2013-02-19 03:15:00,
2013-02-18 22:24:00,54.0,47.0,-100.00,East,88,5.0,-999.0,77,0.00,,,-99.99,0.000000,,2013-02-19 03:24:00,
2013-02-18 22:34:00,54.0,47.0,-100.00,East,86,4.0,-999.0,77,0.00,,,-99.99,0.000000,,2013-02-19 03:34:00,
2013-02-18 22:44:00,53.0,47.0,-100.00,East,86,4.0,-999.0,78,0.00,,,-99.99,0.000000,,2013-02-19 03:44:00,
2013-02-18 22:55:00,53.0,47.0,-100.00,East,86,4.0,-999.0,78,0.00,,,-99.99,0.000000,,2013-02-19 03:55:00,
2013-02-18 23:02:00,53.0,47.0,-100.00,East,85,4.0,-999.0,78,0.00,,,-99.99,0.000000,,2013-02-19 04:02:00,
2013-02-18 23:14:00,53.0,47.0,-100.00,East,91,4.0,-999.0,78,0.00,,,-99.99,0.000000,,2013-02-19 04:14:00,
2013-02-18 23:23:00,53.0,47.0,-100.00,East,91,4.0,-999.0,78,0.00,,,-99.99,0.000000,,2013-02-19 04:23:00,
2013-02-18 23:33:00,53.0,47.0,-100.00,East,98,5.0,-999.0,79,0.00,,,-99.99,0.000000,,2013-02-19 04:33:00,
2013-02-18 23:44:00,53.0,47.0,-100.00,East,98,5.0,-999.0,79,0.00,,,-99.99,0.000000,,2013-02-19 04:44:00,
2013-02-18 23:55:00,53.0,47.0,-100.00,ESE,106,5.0,-999.0,79,0.00,,,-99.99,0.000000,,2013-02-19 04:55:00,